Time;durP1;ratioP1;P1;durP2;ratioP2;P2;SDS_P1;SDS_P2;PMS_P1;PMS_P2;Temp;Humidity;BMP_temperature;BMP_pressure;BME280_temperature;BME280_humidity;BME280_pressure;Samples;Min_cycle;Max_cycle;Signal;HPM_P1;HPM_P2
2024/02/16 00:00:59;;;;;;;;;23.75;19.25;;;;;-143.90;100.00;76086.13;4960919;28;107975;-73
2024/02/16 00:03:27;;;;;;;;;19.25;17.00;;;;;-143.90;100.00;76090.25;4957602;28;101761;-73
2024/02/16 00:05:55;;;;;;;;;18.75;18.00;;;;;-143.90;100.00;76079.91;4952175;28;102169;-74
2024/02/16 00:08:22;;;;;;;;;21.50;19.25;;;;;-143.90;100.00;76084.03;4961259;28;101554;-74
2024/02/16 00:10:48;;;;;;;;;14.00;11.50;;;;;-143.90;100.00;76077.84;4960904;28;103627;-74
2024/02/16 00:13:15;;;;;;;;;22.50;18.25;;;;;-143.90;100.00;76090.25;4960321;28;102704;-74
2024/02/16 00:15:42;;;;;;;;;23.25;20.00;;;;;-143.90;100.00;76084.03;4960202;28;101863;-74
2024/02/16 00:18:12;;;;;;;;;26.50;21.50;;;;;-143.90;100.00;76094.38;4955107;28;102985;-74
2024/02/16 00:20:39;;;;;;;;;31.25;27.00;;;;;-143.90;100.00;76098.53;4948090;28;103062;-74
2024/02/16 00:23:06;;;;;;;;;36.75;29.25;;;;;-143.90;100.00;76106.78;4961290;28;101585;-74
2024/02/16 00:25:33;;;;;;;;;39.00;32.50;;;;;-143.90;100.00;76119.19;4958783;28;101989;-73
2024/02/16 00:28:01;;;;;;;;;44.75;39.75;;;;;-143.90;100.00;76131.59;4954287;28;101666;-74
2024/02/16 00:30:28;;;;;;;;;54.25;42.00;;;;;-143.90;100.00;76144.00;4957977;28;103198;-74
2024/02/16 00:32:54;;;;;;;;;54.00;42.50;;;;;-143.90;100.00;76152.28;4960659;28;101901;-74
2024/02/16 00:35:21;;;;;;;;;43.00;35.25;;;;;-143.90;100.00;76158.50;4957044;28;101901;-74
2024/02/16 00:37:48;;;;;;;;;35.50;29.75;;;;;-143.90;100.00;76150.22;4959206;28;104007;-74
2024/02/16 00:40:15;;;;;;;;;36.25;32.00;;;;;-143.90;100.00;76152.28;4956597;28;103695;-75
2024/02/16 00:42:42;;;;;;;;;21.50;18.25;;;;;-143.90;100.00;76141.94;4960109;28;101556;-75
2024/02/16 00:45:08;;;;;;;;;27.00;22.75;;;;;-143.90;100.00;76139.88;4974334;28;101801;-75
2024/02/16 00:47:35;;;;;;;;;27.00;26.00;;;;;-143.90;100.00;76135.75;4959339;28;101877;-75
2024/02/16 00:50:07;;;;;;;;;34.25;30.25;;;;;-143.90;100.00;76135.75;4957751;28;103884;-75
2024/02/16 00:52:34;;;;;;;;;27.75;22.25;;;;;-143.90;100.00;76123.34;4964728;28;102527;-75
2024/02/16 00:55:00;;;;;;;;;27.00;22.75;;;;;-143.90;100.00;76115.06;4963539;28;102968;-74
2024/02/16 00:57:27;;;;;;;;;26.00;23.00;;;;;-143.90;100.00;76113.00;4964541;28;102151;-75
2024/02/16 00:59:55;;;;;;;;;22.50;19.75;;;;;-143.90;100.00;76110.94;4949543;28;103209;-75
2024/02/16 01:02:22;;;;;;;;;8.75;6.50;;;;;-143.90;100.00;76115.06;4961306;28;101766;-75
2024/02/16 01:04:51;;;;;;;;;21.75;17.75;;;;;-143.90;100.00;76110.94;4963380;28;102038;-75
2024/02/16 01:07:18;;;;;;;;;10.75;9.50;;;;;-143.90;100.00;76106.78;4966096;28;102235;-75
2024/02/16 01:09:45;;;;;;;;;17.25;11.50;;;;;-143.90;100.00;76110.94;4960821;28;103292;-75
2024/02/16 01:12:12;;;;;;;;;15.25;13.25;;;;;-143.90;100.00;76115.06;4954239;28;101868;-75
2024/02/16 01:14:39;;;;;;;;;13.00;10.50;;;;;-143.90;100.00;76125.41;4963210;28;101991;-75
2024/02/16 01:17:05;;;;;;;;;14.25;12.25;;;;;-143.90;100.00;76131.59;4965303;28;101919;-76
2024/02/16 01:19:33;;;;;;;;;12.00;10.00;;;;;-143.90;100.00;76137.81;4965459;28;103498;-75
2024/02/16 01:22:00;;;;;;;;;16.75;13.50;;;;;-143.90;100.00;76150.22;4957637;28;104508;-75
2024/02/16 01:24:27;;;;;;;;;9.75;7.00;;;;;-143.90;100.00;76154.34;4962582;28;101530;-75
2024/02/16 01:26:54;;;;;;;;;13.50;12.50;;;;;-143.90;100.00;76162.63;4962591;28;101492;-75
2024/02/16 01:29:21;;;;;;;;;13.75;12.75;;;;;-143.90;100.00;76164.69;4964704;28;103657;-75
2024/02/16 01:31:47;;;;;;;;;12.75;10.25;;;;;-143.90;100.00;76185.38;4956244;28;102113;-75
2024/02/16 01:34:14;;;;;;;;;13.25;9.75;;;;;-143.90;100.00;76191.56;4957926;28;101594;-75
2024/02/16 01:36:41;;;;;;;;;11.00;11.00;;;;;-143.90;100.00;76201.91;4975499;28;101705;-74
2024/02/16 01:39:08;;;;;;;;;17.00;12.00;;;;;-143.90;100.00;76201.91;4963861;28;103434;-74
2024/02/16 01:41:39;;;;;;;;;15.25;13.00;;;;;-143.90;100.00;76201.91;4963301;28;101569;-75
2024/02/16 01:44:05;;;;;;;;;11.25;9.50;;;;;-143.90;100.00;76206.06;4956490;28;105532;-74
2024/02/16 01:46:33;;;;;;;;;8.25;7.50;;;;;-143.90;100.00;76218.47;4968488;28;105844;-74
2024/02/16 01:49:00;;;;;;;;;8.00;7.25;;;;;-143.90;100.00;76226.72;4956868;28;106572;-74
2024/02/16 01:51:27;;;;;;;;;16.50;13.00;;;;;-143.90;100.00;76235.00;4962080;28;101612;-74
2024/02/16 01:53:55;;;;;;;;;8.50;7.00;;;;;-143.90;100.00;76241.22;4952258;28;102679;-74
2024/02/16 01:56:22;;;;;;;;;11.25;10.75;;;;;-143.90;100.00;76247.41;4963372;28;101769;-75
2024/02/16 01:58:49;;;;;;;;;28.00;23.75;;;;;-143.90;100.00;76274.28;4976200;27;103420;-74
2024/02/16 02:01:15;;;;;;;;;26.75;23.50;;;;;-143.90;100.00;76292.91;4962997;28;102004;-75
2024/02/16 02:03:42;;;;;;;;;28.50;22.50;;;;;-143.90;100.00;76301.19;4962353;28;101960;-74
2024/02/16 02:06:09;;;;;;;;;30.75;26.00;;;;;-143.90;100.00;76309.44;4957091;28;103204;-74
2024/02/16 02:08:36;;;;;;;;;27.50;22.50;;;;;-143.90;100.00;76311.53;4957820;28;103531;-74
2024/02/16 02:11:03;;;;;;;;;26.00;23.00;;;;;-143.90;100.00;76323.94;4966625;28;101796;-74
2024/02/16 02:13:30;;;;;;;;;29.00;27.25;;;;;-143.90;100.00;76330.13;4963572;28;103583;-74
2024/02/16 02:15:59;;;;;;;;;53.00;41.00;;;;;-143.90;100.00;76350.81;4954931;28;102174;-74
2024/02/16 02:18:26;;;;;;;;;51.00;40.67;;;;;-143.90;100.00;76363.22;4958150;28;103821;-74
2024/02/16 02:20:53;;;;;;;;;55.00;40.00;;;;;-143.90;100.00;76381.84;4962301;28;101583;-74
2024/02/16 02:23:20;;;;;;;;;52.00;42.00;;;;;-143.90;100.00;76379.75;4958878;28;104771;-74
2024/02/16 02:25:49;;;;;;;;;55.00;41.00;;;;;-143.90;100.00;76392.16;4960100;28;101767;-74
2024/02/16 02:28:16;;;;;;;;;58.00;43.33;;;;;-143.90;100.00;76402.50;4955995;28;105165;-74
2024/02/16 02:30:45;;;;;;;;;41.50;35.50;;;;;-143.90;100.00;76394.25;4960110;28;101664;-75
2024/02/16 02:33:13;;;;;;;;;41.50;36.00;;;;;-143.90;100.00;76402.50;4963106;28;101719;-74
2024/02/16 02:35:40;;;;;;;;;50.25;36.50;;;;;-143.90;100.00;76404.56;4964453;28;101814;-74
2024/02/16 02:38:07;;;;;;;;;40.33;34.67;;;;;-143.90;100.00;76402.50;4954990;28;103346;-75
2024/02/16 02:40:33;;;;;;;;;40.25;34.50;;;;;-143.90;100.00;76414.91;4961727;28;101870;-74
2024/02/16 02:43:00;;;;;;;;;34.00;27.00;;;;;-143.90;100.00;76404.56;4960120;28;103922;-74
2024/02/16 02:45:27;;;;;;;;;29.00;25.25;;;;;-143.90;100.00;76396.31;4959274;28;102043;-75
2024/02/16 02:47:54;;;;;;;;;24.50;19.50;;;;;-143.90;100.00;76392.16;4956705;28;103371;-75
2024/02/16 02:50:20;;;;;;;;;29.00;25.50;;;;;-143.90;100.00;76390.09;4957915;28;101955;-74
2024/02/16 02:52:47;;;;;;;;;33.50;26.25;;;;;-143.90;100.00;76398.38;4964041;28;101554;-74
2024/02/16 02:55:14;;;;;;;;;25.75;20.75;;;;;-143.90;100.00;76396.31;4964526;28;101998;-74
2024/02/16 02:57:41;;;;;;;;;24.75;20.50;;;;;-143.90;100.00;76398.38;4960679;28;103487;-74
2024/02/16 03:00:11;;;;;;;;;24.00;20.50;;;;;-143.90;100.00;76400.44;4955360;28;101724;-75
2024/02/16 03:02:40;;;;;;;;;18.00;14.75;;;;;-143.90;100.00;76421.13;4960601;28;101528;-74
2024/02/16 03:05:07;;;;;;;;;16.00;15.00;;;;;-143.90;100.00;76425.25;4960055;28;102027;-75
2024/02/16 03:07:34;;;;;;;;;16.50;15.00;;;;;-143.90;100.00;76437.66;4961752;28;103422;-75
2024/02/16 03:10:03;;;;;;;;;18.25;16.25;;;;;-143.90;100.00;76443.88;4954928;28;103706;-75
2024/02/16 03:12:29;;;;;;;;;25.00;19.75;;;;;-143.90;100.00;76454.22;4961270;28;101718;-75
2024/02/16 03:14:56;;;;;;;;;35.67;34.00;;;;;-143.90;100.00;76464.56;4962600;28;103125;-75
2024/02/16 03:17:23;;;;;;;;;33.50;29.00;;;;;-143.90;100.00;76466.63;4962840;28;103700;-76
2024/02/16 03:19:49;;;;;;;;;40.00;29.67;;;;;-143.90;100.00;76472.81;4959786;28;101767;-76
2024/02/16 03:22:16;;;;;;;;;36.50;33.00;;;;;-143.90;100.00;76472.81;4963338;28;101797;-75
2024/02/16 03:24:44;;;;;;;;;41.67;37.67;;;;;-143.90;100.00;76483.16;4963681;28;102073;-76
2024/02/16 03:27:12;;;;;;;;;45.00;37.33;;;;;-143.90;100.00;76499.72;4771365;28;5001583;-76
2024/02/16 03:29:38;;;;;;;;;53.00;41.00;;;;;-143.90;100.00;76512.13;4963596;28;104365;-75
2024/02/16 03:32:06;;;;;;;;;42.00;36.67;;;;;-143.90;100.00;76522.47;4958272;28;101915;-76
2024/02/16 03:34:33;;;;;;;;;52.67;42.33;;;;;-143.90;100.00;76534.88;4962599;28;101966;-75
2024/02/16 03:37:00;;;;;;;;;35.33;35.33;;;;;-143.90;100.00;76536.94;4963662;28;103526;-76
2024/02/16 03:39:26;;;;;;;;;32.67;32.33;;;;;-143.90;100.00;76541.06;4962393;28;101557;-75
2024/02/16 03:41:53;;;;;;;;;35.67;32.00;;;;;-143.90;100.00;76539.00;4954504;28;101876;-75
2024/02/16 03:44:21;;;;;;;;;37.33;35.33;;;;;-143.90;100.00;76536.94;4961479;28;102232;-75
2024/02/16 03:46:48;;;;;;;;;32.67;27.67;;;;;-143.90;100.00;76534.88;4961763;28;103560;-75
2024/02/16 03:49:15;;;;;;;;;41.67;33.67;;;;;-143.90;100.00;76545.22;4963630;28;101860;-75
2024/02/16 03:51:42;;;;;;;;;36.67;32.00;;;;;-143.90;100.00;76561.75;4961848;28;101990;-75
2024/02/16 03:54:09;;;;;;;;;34.25;29.00;;;;;-143.90;100.00;76557.63;4955777;27;101834;-75
2024/02/16 03:56:35;;;;;;;;;26.00;22.00;;;;;-143.90;100.00;76559.69;4965304;28;103593;-75
2024/02/16 03:59:04;;;;;;;;;23.50;20.50;;;;;-143.90;100.00;76557.63;4959355;28;102020;-75
2024/02/16 04:01:33;;;;;;;;;14.50;12.25;;;;;-143.90;100.00;76570.03;4959221;28;101771;-75
2024/02/16 04:03:59;;;;;;;;;18.00;14.75;;;;;-143.90;100.00;76565.88;4957504;28;101628;-76
2024/02/16 04:06:26;;;;;;;;;30.75;21.50;;;;;-143.90;100.00;76574.16;4954525;28;103507;-75
2024/02/16 04:08:53;;;;;;;;;34.50;28.25;;;;;-143.90;100.00;76582.44;4959992;28;101980;-75
2024/02/16 04:11:21;;;;;;;;;27.50;23.25;;;;;-143.90;100.00;76580.38;4961698;28;102759;-75
2024/02/16 04:13:48;;;;;;;;;30.50;25.00;;;;;-143.90;100.00;76584.50;4958170;28;101861;-75
2024/02/16 04:16:15;;;;;;;;;28.25;21.75;;;;;-143.90;100.00;76582.44;4957000;27;103198;-75
2024/02/16 04:18:41;;;;;;;;;28.33;22.33;;;;;-143.90;100.00;76578.31;4960651;28;101861;-76
2024/02/16 04:21:08;;;;;;;;;29.00;19.00;;;;;-143.90;100.00;76578.31;4962817;28;101480;-75
2024/02/16 04:23:35;;;;;;;;;24.50;22.50;;;;;-143.90;100.00;76582.44;4962226;28;101993;-75
2024/02/16 04:26:02;;;;;;;;;24.75;19.50;;;;;-143.90;100.00;76590.72;4953920;28;108414;-75
2024/02/16 04:28:28;;;;;;;;;21.50;19.25;;;;;-143.90;100.00;76596.91;4960398;28;101697;-75
2024/02/16 04:30:55;;;;;;;;;15.50;14.50;;;;;-143.90;100.00;76601.03;4962496;28;101703;-75
2024/02/16 04:33:21;;;;;;;;;18.50;13.75;;;;;-143.90;100.00;76603.13;4964649;28;102752;-75
2024/02/16 04:35:50;;;;;;;;;19.00;12.00;;;;;-143.90;100.00;76603.13;4956271;28;103331;-77
2024/02/16 04:38:17;;;;;;;;;16.75;12.75;;;;;-143.90;100.00;76605.19;4959089;28;103090;-76
2024/02/16 04:40:44;;;;;;;;;21.00;18.25;;;;;-143.90;100.00;76611.38;4959898;28;101790;-75
2024/02/16 04:43:11;;;;;;;;;10.25;7.50;;;;;-143.90;100.00;76623.78;4960652;28;104340;-76
2024/02/16 04:45:38;;;;;;;;;10.00;9.25;;;;;-143.90;100.00;76627.94;4963235;28;103477;-76
2024/02/16 04:48:05;;;;;;;;;12.50;10.00;;;;;-143.90;100.00;76634.13;4959038;28;101920;-76
2024/02/16 04:50:33;;;;;;;;;22.00;18.75;;;;;-143.90;100.00;76630.00;4963319;28;101534;-75
2024/02/16 04:53:03;;;;;;;;;17.50;14.50;;;;;-143.90;100.00;76634.13;4961761;28;103140;-76
2024/02/16 04:55:30;;;;;;;;;22.00;21.75;;;;;-143.90;100.00;76638.28;4962060;28;103545;-75
2024/02/16 04:57:57;;;;;;;;;10.25;9.50;;;;;-143.90;100.00;76644.47;4952957;28;102033;-75
2024/02/16 05:00:24;;;;;;;;;6.50;6.50;;;;;-143.90;100.00;76652.75;4961916;28;101750;-75
2024/02/16 05:02:52;;;;;;;;;15.50;14.25;;;;;-143.90;100.00;76656.88;4963075;28;103477;-76
2024/02/16 05:05:19;;;;;;;;;12.50;10.00;;;;;-143.90;100.00;76656.88;4961776;28;103435;-75
2024/02/16 05:07:50;;;;;;;;;13.00;11.50;;;;;-143.90;100.00;76661.03;4958103;28;102674;-73
2024/02/16 05:10:17;;;;;;;;;13.00;10.25;;;;;-143.90;100.00;76665.16;4956349;28;101925;-75
2024/02/16 05:12:43;;;;;;;;;12.00;9.75;;;;;-143.90;100.00;76663.09;4956643;28;101742;-75
2024/02/16 05:15:13;;;;;;;;;11.00;10.75;;;;;-143.90;100.00;76669.28;4956696;28;103591;-75
2024/02/16 05:17:40;;;;;;;;;16.00;16.00;;;;;-143.90;100.00;76665.16;4960454;28;102017;-75
2024/02/16 05:20:14;;;;;;;;;8.75;5.50;;;;;-143.90;100.00;76669.28;4951995;28;102098;-75
2024/02/16 05:22:43;;;;;;;;;13.75;10.00;;;;;-143.90;100.00;76677.56;4960399;28;101893;-77
2024/02/16 05:25:12;;;;;;;;;7.00;6.50;;;;;-143.90;100.00;76681.72;4956179;28;103517;-74
2024/02/16 05:27:39;;;;;;;;;14.25;13.00;;;;;-143.90;100.00;76677.56;4957792;28;103889;-74
2024/02/16 05:30:09;;;;;;;;;10.50;9.50;;;;;-143.90;100.00;76677.56;4954223;28;103805;-74
2024/02/16 05:32:36;;;;;;;;;22.25;19.50;;;;;-143.90;100.00;76683.78;4956490;28;102035;-74
2024/02/16 05:35:11;;;;;;;;;16.75;15.00;;;;;-143.90;100.00;76671.38;4949104;28;108489;-74
2024/02/16 05:37:39;;;;;;;;;15.25;14.50;;;;;-143.90;100.00;76669.28;4960700;28;102457;-74
2024/02/16 05:40:28;;;;;;;;;10.00;9.25;;;;;-143.90;100.00;76661.03;4959499;28;101800;-74
2024/02/16 05:43:13;;;;;;;;;14.25;14.00;;;;;-143.90;100.00;76661.03;4952381;28;102187;-74
2024/02/16 05:45:56;;;;;;;;;16.00;15.00;;;;;-143.90;100.00;76656.88;4943316;28;104043;-74
2024/02/16 05:48:40;;;;;;;;;75.00;58.00;;;;;-143.90;100.00;76667.22;4944823;28;104467;-74
2024/02/16 05:51:24;;;;;;;;;82.00;62.33;;;;;-143.90;100.00;76681.72;4944765;28;101672;-74
2024/02/16 05:54:09;;;;;;;;;83.33;63.33;;;;;-143.90;100.00;76683.78;4936884;28;102522;-74
2024/02/16 05:56:53;;;;;;;;;78.00;59.00;;;;;-143.90;100.00;76685.84;4965648;28;101893;-74
2024/02/16 05:59:20;;;;;;;;;65.33;52.00;;;;;-143.90;100.00;76677.56;4966206;28;102294;-74
2024/02/16 06:01:47;;;;;;;;;66.33;50.00;;;;;-143.90;100.00;76673.44;4963209;28;102092;-75
2024/02/16 06:04:13;;;;;;;;;62.33;51.00;;;;;-143.90;100.00;76669.28;4960040;28;102721;-74
2024/02/16 06:06:40;;;;;;;;;66.67;47.00;;;;;-143.90;100.00;76665.16;4966197;28;103413;-74
2024/02/16 06:09:07;;;;;;;;;58.33;45.67;;;;;-143.90;100.00;76669.28;4966477;28;102001;-74
2024/02/16 06:11:37;;;;;;;;;49.00;40.67;;;;;-143.90;100.00;76661.03;4960537;28;101944;-74
2024/02/16 06:14:05;;;;;;;;;45.67;36.33;;;;;-143.90;100.00;76665.16;4940661;28;101799;-74
2024/02/16 06:16:32;;;;;;;;;47.33;39.33;;;;;-143.90;100.00;76661.03;4961825;28;103447;-74
2024/02/16 06:18:58;;;;;;;;;48.67;40.00;;;;;-143.90;100.00;76656.88;4961631;28;102139;-74
2024/02/16 06:21:25;;;;;;;;;77.33;60.00;;;;;-143.90;100.00;76658.97;4963424;28;101900;-74
2024/02/16 06:23:52;;;;;;;;;61.67;51.00;;;;;-143.90;100.00;76656.88;4956448;28;101874;-74
2024/02/16 06:26:21;;;;;;;;;49.67;42.00;;;;;-143.90;100.00;76648.63;4962184;28;103573;-75
2024/02/16 06:28:48;;;;;;;;;51.33;35.67;;;;;-143.90;100.00;76636.22;4959018;28;102311;-73
2024/02/16 06:31:15;;;;;;;;;51.00;36.00;;;;;-143.90;100.00;76632.06;4961936;28;102404;-73
2024/02/16 06:33:41;;;;;;;;;37.33;34.33;;;;;-143.90;100.00;76611.38;4983200;28;101818;-73
2024/02/16 06:36:09;;;;;;;;;33.00;26.00;;;;;-143.90;100.00;76611.38;4958382;28;103325;-74
2024/02/16 06:38:37;;;;;;;;;52.33;43.00;;;;;-143.90;100.00;76607.25;4969993;28;101914;-73
2024/02/16 06:41:04;;;;;;;;;42.00;31.33;;;;;-143.90;100.00;76603.13;4961170;27;103250;-73
2024/02/16 06:43:31;;;;;;;;;35.33;31.00;;;;;-143.90;100.00;76603.13;4964365;28;103991;-72
2024/02/16 06:45:58;;;;;;;;;34.33;29.67;;;;;-143.90;100.00;76601.03;4952269;28;103519;-74
2024/02/16 06:48:24;;;;;;;;;33.33;28.67;;;;;-143.90;100.00;76590.72;4963539;28;101527;-73
2024/02/16 06:50:53;;;;;;;;;26.25;23.75;;;;;-143.90;100.00;76590.72;4962597;28;101522;-73
2024/02/16 06:53:20;;;;;;;;;44.33;36.33;;;;;-143.90;100.00;76586.56;4961687;28;101840;-73
2024/02/16 06:55:48;;;;;;;;;41.67;35.33;;;;;-143.90;100.00;76584.50;4958041;28;102923;-73
2024/02/16 06:58:14;;;;;;;;;51.67;39.67;;;;;-143.90;100.00;76576.22;4957256;28;101658;-72
2024/02/16 07:00:42;;;;;;;;;60.33;47.00;;;;;-143.90;100.00;76561.75;4965029;28;101910;-72
2024/02/16 07:03:09;;;;;;;;;45.67;40.33;;;;;-143.90;100.00;76557.63;4963758;28;101897;-72
2024/02/16 07:05:35;;;;;;;;;58.33;43.33;;;;;-143.90;100.00;76549.34;4965392;28;107946;-72
2024/02/16 07:08:06;;;;;;;;;49.33;43.00;;;;;-143.90;100.00;76539.00;4953336;28;101845;-72
2024/02/16 07:10:33;;;;;;;;;67.00;51.33;;;;;-143.90;100.00;76528.66;4960791;28;103549;-73
2024/02/16 07:13:00;;;;;;;;;64.33;51.00;;;;;-143.90;100.00;76528.66;4957748;28;101876;-73
2024/02/16 07:15:27;;;;;;;;;72.67;53.67;;;;;-143.90;100.00;76514.19;4959469;28;103390;-72
2024/02/16 07:17:54;;;;;;;;;74.00;56.00;;;;;-143.90;100.00;76499.72;4953234;28;101631;-72
2024/02/16 07:20:21;;;;;;;;;75.33;53.67;;;;;-143.90;100.00;76487.31;4960232;28;101675;-72
2024/02/16 07:22:50;;;;;;;;;62.67;44.67;;;;;-143.90;100.00;76466.63;4978125;28;101775;-72
2024/02/16 07:25:17;;;;;;;;;57.33;44.67;;;;;-143.90;100.00;76445.94;4964808;28;103285;-73
2024/02/16 07:27:43;;;;;;;;;53.00;42.67;;;;;-143.90;100.00;76425.25;4965037;28;101768;-73
2024/02/16 07:30:11;;;;;;;;;40.33;30.67;;;;;-143.90;100.00;76406.66;4956644;28;101467;-72
2024/02/16 07:32:38;;;;;;;;;36.75;31.25;;;;;-143.90;100.00;76383.91;4966267;28;101766;-72
2024/02/16 07:35:06;;;;;;;;;34.50;32.75;;;;;-143.90;100.00;76367.34;4965526;28;103711;-72
2024/02/16 07:37:33;;;;;;;;;57.00;45.67;;;;;-143.90;100.00;76348.75;4963429;28;101746;-72
2024/02/16 07:39:59;;;;;;;;;58.67;47.67;;;;;-143.90;100.00;76344.59;4956846;28;102336;-73
2024/02/16 07:42:26;;;;;;;;;58.33;46.33;;;;;-143.90;100.00;76334.25;4966276;28;101707;-73
2024/02/16 07:44:53;;;;;;;;;62.00;49.00;;;;;-143.90;100.00;76317.72;4964015;28;103070;-73
2024/02/16 07:47:20;;;;;;;;;45.67;27.00;;;;;-143.90;100.00;76309.44;4963877;28;101999;-72
2024/02/16 07:49:46;;;;;;;;;62.00;50.33;;;;;-143.90;100.00;76292.91;4963634;28;101659;-72
2024/02/16 07:52:13;;;;;;;;;71.67;56.00;;;;;-143.90;100.00;76272.22;4959828;28;101582;-72
2024/02/16 07:54:41;;;;;;;;;61.67;49.33;;;;;-143.90;100.00;76251.53;4963974;28;103547;-72
2024/02/16 07:57:07;;;;;;;;;66.33;49.00;;;;;-143.90;100.00;76232.94;4967070;28;101754;-73
2024/02/16 07:59:34;;;;;;;;;71.33;56.67;;;;;-143.90;100.00;76218.47;4964486;28;101713;-72
2024/02/16 08:02:02;;;;;;;;;66.33;51.33;;;;;-143.90;100.00;76206.06;4958594;28;101839;-73
2024/02/16 08:04:29;;;;;;;;;63.67;48.67;;;;;-143.90;100.00;76177.09;4964405;28;103484;-73
2024/02/16 08:06:56;;;;;;;;;55.33;43.33;;;;;-143.90;100.00;76156.41;4965854;28;101858;-72
2024/02/16 08:09:22;;;;;;;;;56.33;43.00;;;;;-143.90;100.00;76135.75;4965177;28;102440;-73
2024/02/16 08:11:49;;;;;;;;;49.33;43.00;;;;;-143.90;100.00;76121.28;4963278;28;101940;-72
2024/02/16 08:14:16;;;;;;;;;55.25;44.75;;;;;-143.90;100.00;76102.66;4960072;28;106686;-73
2024/02/16 08:16:42;;;;;;;;;47.25;39.00;;;;;-143.90;100.00;76081.97;4964229;28;102004;-73
2024/02/16 08:19:09;;;;;;;;;49.25;34.50;;;;;-143.90;100.00;76065.44;4965058;28;102023;-73
2024/02/16 08:21:35;;;;;;;;;45.00;37.75;;;;;-143.90;100.00;76055.09;4967495;28;101640;-73
2024/02/16 08:24:02;;;;;;;;;54.00;40.00;;;;;-143.90;100.00;76044.75;4956686;28;103450;-72
2024/02/16 08:26:29;;;;;;;;;47.25;38.25;;;;;-143.90;100.00;76022.00;4965251;28;102241;-72
2024/02/16 08:28:56;;;;;;;;;45.00;36.00;;;;;-143.90;100.00;76011.66;4964100;28;101578;-72
2024/02/16 08:31:23;;;;;;;;;39.75;35.75;;;;;-143.90;100.00;75993.06;4965577;28;101932;-73
2024/02/16 08:33:49;;;;;;;;;37.75;35.00;;;;;-143.90;100.00;75974.44;4962613;28;103533;-72
2024/02/16 08:36:16;;;;;;;;;42.50;34.75;;;;;-143.90;100.00;75949.63;4958304;28;102554;-72
2024/02/16 08:38:43;;;;;;;;;48.25;39.50;;;;;-143.90;100.00;75933.09;4976524;28;103880;-72
2024/02/16 08:41:09;;;;;;;;;42.25;38.00;;;;;-143.90;100.00;75908.28;4966442;28;102074;-73
2024/02/16 08:43:36;;;;;;;;;36.00;30.00;;;;;-143.90;100.00;75873.13;4966989;28;104640;-72
2024/02/16 08:46:03;;;;;;;;;31.75;23.25;;;;;-143.90;100.00;75854.53;4968486;28;101749;-72
2024/02/16 08:48:30;;;;;;;;;16.25;14.00;;;;;-143.90;100.00;75831.78;4962595;28;101651;-73
2024/02/16 08:50:56;;;;;;;;;21.25;18.75;;;;;-143.90;100.00;75792.50;4965961;28;101433;-73
2024/02/16 08:53:23;;;;;;;;;18.00;18.00;;;;;-143.90;100.00;75773.88;4962963;28;103671;-72
2024/02/16 08:55:50;;;;;;;;;17.25;13.25;;;;;-143.90;100.00;75744.94;4961222;28;101535;-72
2024/02/16 08:58:18;;;;;;;;;17.00;13.75;;;;;-143.90;100.00;75726.31;4962460;28;101914;-73
2024/02/16 09:00:45;;;;;;;;;15.50;12.25;;;;;-143.90;100.00;75699.44;4980128;27;102560;-73
2024/02/16 09:03:12;;;;;;;;;12.50;8.75;;;;;-143.90;100.00;75674.63;4963095;28;103287;-73
2024/02/16 09:05:39;;;;;;;;;9.00;9.00;;;;;-143.90;100.00;75653.94;4964483;28;103813;-73
2024/02/16 09:08:06;;;;;;;;;12.50;8.75;;;;;-143.90;100.00;75633.28;4957641;28;101548;-72
2024/02/16 09:10:33;;;;;;;;;13.00;12.00;;;;;-143.90;100.00;75616.72;4967931;28;101553;-72
2024/02/16 09:13:03;;;;;;;;;12.75;8.25;;;;;-143.90;100.00;75589.84;4963182;28;107923;-73
2024/02/16 09:15:30;;;;;;;;;10.00;10.00;;;;;-143.90;100.00;75585.72;4966760;28;102390;-72
2024/02/16 09:17:57;;;;;;;;;13.50;10.75;;;;;-143.90;100.00;75569.19;4959851;28;101637;-73
2024/02/16 09:20:23;;;;;;;;;9.25;8.00;;;;;-143.90;100.00;75552.63;4968649;28;101566;-72
2024/02/16 09:22:50;;;;;;;;;7.50;7.25;;;;;-143.90;100.00;75531.97;4967183;28;103346;-72
2024/02/16 09:25:17;;;;;;;;;9.50;9.50;;;;;-143.90;100.00;75519.56;4982054;28;101712;-73
2024/02/16 09:27:44;;;;;;;;;9.50;9.25;;;;;-143.90;100.00;75511.28;4980368;28;102030;-72
2024/02/16 09:30:12;;;;;;;;;16.00;12.75;;;;;-143.90;100.00;75492.69;4961318;28;104010;-72
2024/02/16 09:32:40;;;;;;;;;13.00;10.50;;;;;-143.90;100.00;75486.47;4967824;28;103354;-73
2024/02/16 09:35:07;;;;;;;;;5.75;4.50;;;;;-143.90;100.00;75474.06;4968617;28;101310;-72
2024/02/16 09:37:35;;;;;;;;;13.00;11.25;;;;;-143.90;100.00;75465.81;4965821;28;101949;-72
2024/02/16 09:40:03;;;;;;;;;8.75;7.00;;;;;-143.90;100.00;75449.25;4957820;28;101883;-72
2024/02/16 09:42:30;;;;;;;;;8.50;7.50;;;;;-143.90;100.00;75434.78;4965804;28;103445;-73
2024/02/16 09:44:57;;;;;;;;;6.25;6.00;;;;;-143.90;100.00;75424.44;4966496;28;101796;-73
2024/02/16 09:47:25;;;;;;;;;12.50;10.50;;;;;-143.90;100.00;75461.66;4966200;28;102020;-73
2024/02/16 09:49:52;;;;;;;;;9.75;9.00;;;;;-143.90;100.00;75436.84;4960827;28;103747;-73
2024/02/16 09:52:19;;;;;;;;;11.25;9.25;;;;;-143.90;100.00;75416.19;4965820;28;103455;-73
2024/02/16 09:54:46;;;;;;;;;12.00;8.00;;;;;-143.90;100.00;75399.63;4966600;28;101435;-72
2024/02/16 09:57:16;;;;;;;;;10.75;8.50;;;;;-143.90;100.00;75383.09;4946200;28;101616;-73
2024/02/16 09:59:44;;;;;;;;;10.25;5.25;;;;;-143.90;100.00;75362.44;4948368;28;101902;-72
2024/02/16 10:02:10;;;;;;;;;9.75;6.50;;;;;-143.90;68.25;75360.34;4939616;28;103342;-73
2024/02/16 10:04:37;;;;;;;;;10.50;9.25;;;;;-143.90;66.21;75341.75;4949468;28;101782;-72
2024/02/16 10:07:05;;;;;;;;;6.00;5.50;;;;;-143.90;65.83;75329.34;4947430;28;101689;-73
2024/02/16 10:09:39;;;;;;;;;7.75;6.00;;;;;-143.90;64.92;75314.88;4947169;28;106850;-73
2024/02/16 10:12:07;;;;;;;;;5.00;4.00;;;;;-143.90;64.79;75308.66;4940038;28;107814;-73
2024/02/16 10:14:34;;;;;;;;;9.00;7.00;;;;;-143.90;64.78;75304.53;4950336;28;101416;-73
2024/02/16 10:17:02;;;;;;;;;9.00;8.00;;;;;-143.90;63.73;75292.13;4965293;28;101862;-73
2024/02/16 10:19:39;;;;;;;;;5.00;4.00;;;;;-143.90;64.35;75273.53;4948544;28;105045;-73
2024/02/16 10:22:12;;;;;;;;;5.00;5.00;;;;;-143.90;62.93;75261.13;4956625;28;107946;-72
2024/02/16 10:24:40;;;;;;;;;7.50;6.75;;;;;-143.90;62.74;75254.91;4964794;28;101543;-73
2024/02/16 10:27:17;;;;;;;;;6.75;6.50;;;;;-143.90;63.70;75250.78;4967930;28;104024;-73
2024/02/16 10:29:50;;;;;;;;;7.00;7.00;;;;;-143.90;61.12;75252.84;4965330;28;101878;-72
2024/02/16 10:32:18;;;;;;;;;7.75;6.75;;;;;-143.90;62.48;75248.72;4968252;28;104460;-72
2024/02/16 10:34:45;;;;;;;;;7.50;7.00;;;;;-143.90;60.93;75244.59;4964144;27;102487;-72
2024/02/16 10:37:13;;;;;;;;;7.00;7.00;;;;;-143.90;62.23;75232.19;4965758;28;102229;-72
2024/02/16 10:39:41;;;;;;;;;8.75;6.75;;;;;-143.90;61.10;75228.03;4965402;28;101985;-72
2024/02/16 10:42:09;;;;;;;;;7.00;7.00;;;;;-143.90;59.93;75217.69;4960314;28;103109;-72
2024/02/16 10:44:36;;;;;;;;;8.75;6.50;;;;;-143.90;60.02;75236.31;4966073;28;101673;-72
2024/02/16 10:47:04;;;;;;;;;5.25;5.00;;;;;-143.90;59.68;75221.84;4980966;28;101867;-72
2024/02/16 10:49:31;;;;;;;;;5.00;5.00;;;;;-143.90;59.66;75215.63;4965483;28;101877;-72
2024/02/16 10:51:59;;;;;;;;;8.75;7.25;;;;;-143.90;59.81;75225.97;4956865;28;103578;-72